createdAt,value
2016-02-18T00:00:26.826Z,0
2016-02-18T00:01:25.281Z,0
2016-02-18T00:02:25.284Z,0
2016-02-18T00:03:25.302Z,0
2016-02-18T00:04:25.341Z,0
2016-02-18T00:05:25.343Z,0
2016-02-18T00:06:25.346Z,0
2016-02-18T00:07:25.380Z,0
2016-02-18T00:08:25.382Z,0
2016-02-18T00:09:25.401Z,0
2016-02-18T00:10:25.404Z,0
2016-02-18T00:11:25.438Z,0
2016-02-18T00:12:25.472Z,0
2016-02-18T00:13:25.520Z,0
2016-02-18T00:14:25.493Z,0
2016-02-18T00:15:25.495Z,0
2016-02-18T00:16:25.498Z,0
2016-02-18T00:17:25.517Z,0
2016-02-18T00:18:25.566Z,0
2016-02-18T00:19:25.740Z,0
2016-02-18T00:20:25.619Z,0
2016-02-18T00:21:25.605Z,0
2016-02-18T00:22:25.592Z,0
2016-02-18T00:23:25.610Z,0
2016-02-18T00:24:25.675Z,0
2016-02-18T00:25:25.647Z,0
2016-02-18T00:26:25.696Z,0
2016-02-18T00:27:25.715Z,0
2016-02-18T00:28:25.686Z,0
2016-02-18T00:29:25.720Z,0
2016-02-18T00:30:25.724Z,0
2016-02-18T00:31:25.726Z,0
2016-02-18T00:32:25.776Z,0
2016-02-18T00:33:25.778Z,0
2016-02-18T00:34:25.796Z,0
2016-02-18T00:35:25.799Z,0
2016-02-18T00:36:25.801Z,0
2016-02-18T00:37:25.840Z,0
2016-02-18T00:38:25.828Z,0
2016-02-18T00:39:25.845Z,0
2016-02-18T00:40:25.895Z,0
2016-02-18T00:41:25.883Z,0
2016-02-18T00:42:25.900Z,0
2016-02-18T00:43:25.920Z,0
2016-02-18T00:44:25.922Z,0
2016-02-18T00:45:25.972Z,0
2016-02-18T00:46:25.958Z,0
2016-02-18T00:47:25.992Z,0
2016-02-18T00:48:26.011Z,0
2016-02-18T00:49:25.997Z,0
2016-02-18T00:50:26.047Z,0
2016-02-18T00:51:26.034Z,0
2016-02-18T00:52:26.068Z,0
2016-02-18T00:53:26.087Z,0
2016-02-18T00:54:26.074Z,0
2016-02-18T00:55:26.092Z,0
2016-02-18T00:56:26.141Z,0
2016-02-18T00:57:26.129Z,0
2016-02-18T00:58:26.146Z,0
2016-02-18T00:59:26.196Z,0
2016-02-18T01:00:26.168Z,0
2016-02-18T01:01:26.187Z,0
2016-02-18T01:02:26.079Z,0
2016-02-18T01:03:26.224Z,0
2016-02-18T01:04:26.351Z,0
2016-02-18T01:05:26.276Z,0
2016-02-18T01:06:26.246Z,0
2016-02-18T01:07:26.270Z,0
2016-02-18T01:08:26.320Z,0
2016-02-18T01:09:26.306Z,0
2016-02-18T01:10:26.340Z,0
2016-02-18T01:11:26.390Z,0
2016-02-18T01:12:26.345Z,0
2016-02-18T01:13:26.380Z,0
2016-02-18T01:14:26.383Z,0
2016-02-18T01:15:26.400Z,0
2016-02-18T01:16:26.435Z,0
2016-02-18T01:17:26.438Z,0
2016-02-18T01:18:26.441Z,0
2016-02-18T01:19:26.458Z,0
2016-02-18T01:20:26.477Z,0
2016-02-18T01:21:26.511Z,0
2016-02-18T01:22:26.482Z,0
2016-02-18T01:23:26.516Z,0
2016-02-18T01:24:26.550Z,0
2016-02-18T01:25:26.537Z,0
2016-02-18T01:26:26.570Z,0
2016-02-18T01:27:26.589Z,0
2016-02-18T01:28:26.576Z,0
2016-02-18T01:29:26.610Z,0
2016-02-18T01:30:26.644Z,0
2016-02-18T01:31:26.646Z,0
2016-02-18T01:32:26.681Z,0
2016-02-18T01:33:26.651Z,0
2016-02-18T01:34:26.687Z,0
2016-02-18T01:35:26.704Z,0
2016-02-18T01:36:26.706Z,0
2016-02-18T01:37:26.741Z,0
2016-02-18T01:38:26.775Z,0
2016-02-18T01:39:26.872Z,0
2016-02-18T01:40:26.781Z,0
2016-02-18T01:41:26.830Z,0
2016-02-18T01:42:26.801Z,0
2016-02-18T01:43:26.835Z,0
2016-02-18T01:44:26.823Z,0
2016-02-18T01:45:26.841Z,0
2016-02-18T01:46:26.905Z,0
2016-02-18T01:47:26.893Z,0
2016-02-18T01:48:26.896Z,0
2016-02-18T01:49:27.039Z,0
2016-02-18T01:50:26.933Z,0
2016-02-18T01:51:26.982Z,0
2016-02-18T01:52:26.969Z,0
2016-02-18T01:53:27.080Z,0
2016-02-18T01:54:27.069Z,0
2016-02-18T01:55:27.086Z,0
2016-02-18T01:56:27.292Z,0
2016-02-18T01:57:27.341Z,0
2016-02-18T01:58:27.048Z,0
2016-02-18T01:59:27.065Z,0
2016-02-18T02:00:27.084Z,0
2016-02-18T02:01:27.069Z,0
2016-02-18T02:02:27.106Z,0
2016-02-18T02:03:27.112Z,0
2016-02-18T02:04:27.335Z,0
2016-02-18T02:05:27.217Z,0
2016-02-18T02:06:27.192Z,0
2016-02-18T02:07:27.504Z,0
2016-02-18T02:08:27.298Z,0
2016-02-18T02:09:27.202Z,0
2016-02-18T02:10:27.154Z,0
2016-02-18T02:11:27.246Z,0
2016-02-18T02:12:27.168Z,0
2016-02-18T02:13:27.233Z,0
2016-02-18T02:14:27.187Z,0
2016-02-18T02:15:27.344Z,0
2016-02-18T02:16:27.284Z,0
2016-02-18T02:17:27.254Z,0
2016-02-18T02:18:27.257Z,0
2016-02-18T02:19:27.289Z,0
2016-02-18T02:20:27.275Z,0
2016-02-18T02:21:27.277Z,0
2016-02-18T02:22:27.311Z,0
2016-02-18T02:23:27.314Z,0
2016-02-18T02:24:27.332Z,0
2016-02-18T02:25:27.366Z,0
2016-02-18T02:26:27.369Z,0
2016-02-18T02:27:27.371Z,0
2016-02-18T02:28:27.437Z,0
2016-02-18T02:29:27.409Z,0
2016-02-18T02:30:27.426Z,0
2016-02-18T02:31:27.460Z,0
2016-02-18T02:32:27.463Z,0
2016-02-18T02:33:27.481Z,0
2016-02-18T02:34:27.516Z,0
2016-02-18T02:35:27.503Z,0
2016-02-18T02:36:27.506Z,0
2016-02-18T02:37:27.555Z,0
2016-02-18T02:38:27.558Z,0
2016-02-18T02:39:27.561Z,0
2016-02-18T02:40:27.595Z,0
2016-02-18T02:41:27.581Z,0
2016-02-18T02:42:27.662Z,0
2016-02-18T02:43:27.649Z,0
2016-02-18T02:44:27.636Z,0
2016-02-18T02:45:27.655Z,0
2016-02-18T02:46:27.688Z,0
2016-02-18T02:47:27.707Z,0
2016-02-18T02:48:27.710Z,0
2016-02-18T02:49:27.728Z,0
2016-02-18T02:50:27.730Z,0
2016-02-18T02:51:27.749Z,0
2016-02-18T02:52:27.782Z,0
2016-02-18T02:53:27.785Z,0
2016-02-18T02:54:27.804Z,0
2016-02-18T02:55:27.854Z,0
2016-02-18T02:56:27.810Z,0
2016-02-18T02:57:27.843Z,0
2016-02-18T02:58:27.893Z,0
2016-02-18T02:59:27.862Z,0
2016-02-18T03:00:27.896Z,0
2016-02-18T03:01:27.899Z,0
2016-02-18T03:02:27.901Z,0
2016-02-18T03:03:27.935Z,0
2016-02-18T03:04:27.766Z,0
2016-02-18T03:05:27.956Z,0
2016-02-18T03:06:27.974Z,0
2016-02-18T03:07:27.977Z,0
2016-02-18T03:08:28.012Z,0
2016-02-18T03:09:28.045Z,0
2016-02-18T03:10:28.017Z,0
2016-02-18T03:11:28.051Z,0
2016-02-18T03:12:28.100Z,0
2016-02-18T03:13:28.070Z,0
2016-02-18T03:14:28.089Z,0
2016-02-18T03:15:28.123Z,0
2016-02-18T03:16:28.111Z,0
2016-02-18T03:17:28.144Z,0
2016-02-18T03:18:28.163Z,0
2016-02-18T03:19:28.149Z,0
2016-02-18T03:20:28.183Z,0
2016-02-18T03:21:28.186Z,0
2016-02-18T03:22:28.220Z,0
2016-02-18T03:23:28.255Z,0
2016-02-18T03:24:28.241Z,0
2016-02-18T03:25:28.260Z,0
2016-02-18T03:26:28.263Z,0
2016-02-18T03:27:28.280Z,0
2016-02-18T03:28:28.330Z,0
2016-02-18T03:29:28.318Z,0
2016-02-18T03:30:28.180Z,0
2016-02-18T03:31:28.370Z,0
2016-02-18T03:32:28.357Z,0
2016-02-18T03:33:28.375Z,0
2016-02-18T03:34:28.425Z,0
2016-02-18T03:35:28.396Z,0
2016-02-18T03:36:28.415Z,0
2016-02-18T03:37:28.433Z,0
2016-02-18T03:38:28.451Z,0
2016-02-18T03:39:28.470Z,0
2016-02-18T03:40:28.473Z,0
2016-02-18T03:41:28.491Z,0
2016-02-18T03:42:28.540Z,0
2016-02-18T03:43:28.527Z,0
2016-02-18T03:44:28.545Z,0
2016-02-18T03:45:28.579Z,0
2016-02-18T03:46:28.582Z,0
2016-02-18T03:47:28.445Z,0
2016-02-18T03:48:28.619Z,0
2016-02-18T03:49:28.606Z,0
2016-02-18T03:50:28.655Z,0
2016-02-18T03:51:28.627Z,0
2016-02-18T03:52:28.722Z,0
2016-02-18T03:53:28.695Z,0
2016-02-18T03:54:28.744Z,0
2016-02-18T03:55:28.731Z,0
2016-02-18T03:56:28.750Z,0
2016-02-18T03:57:28.799Z,0
2016-02-18T03:58:28.755Z,0
2016-02-18T03:59:28.757Z,0
2016-02-18T04:00:28.776Z,0
2016-02-18T04:01:28.810Z,0
2016-02-18T04:02:28.812Z,0
2016-02-18T04:03:28.815Z,0
2016-02-18T04:04:28.866Z,0
2016-02-18T04:05:28.852Z,0
2016-02-18T04:06:28.871Z,0
2016-02-18T04:07:28.905Z,0
2016-02-18T04:08:28.892Z,0
2016-02-18T04:09:28.926Z,0
2016-02-18T04:10:28.960Z,0
2016-02-18T04:11:28.947Z,0
2016-02-18T04:12:28.966Z,0
2016-02-18T04:13:28.999Z,0
2016-02-18T04:14:28.986Z,0
2016-02-18T04:15:29.020Z,0
2016-02-18T04:16:29.038Z,0
2016-02-18T04:17:29.040Z,0
2016-02-18T04:18:29.060Z,0
2016-02-18T04:19:29.094Z,0
2016-02-18T04:20:29.096Z,0
2016-02-18T04:21:29.099Z,0
2016-02-18T04:22:29.101Z,0
2016-02-18T04:23:29.135Z,0
2016-02-18T04:24:29.169Z,0
2016-02-18T04:25:29.156Z,0
2016-02-18T04:26:29.175Z,0
2016-02-18T04:27:29.193Z,0
2016-02-18T04:28:29.212Z,0
2016-02-18T04:29:29.245Z,0
2016-02-18T04:30:29.233Z,0
2016-02-18T04:31:29.250Z,0
2016-02-18T04:32:29.300Z,0
2016-02-18T04:33:29.286Z,0
2016-02-18T04:34:29.322Z,0
2016-02-18T04:35:29.340Z,0
2016-02-18T04:36:29.311Z,0
2016-02-18T04:37:29.189Z,0
2016-02-18T04:38:29.347Z,0
2016-02-18T04:39:29.382Z,0
2016-02-18T04:40:29.399Z,0
2016-02-18T04:41:29.387Z,0
2016-02-18T04:42:29.422Z,0
2016-02-18T04:43:29.454Z,0
2016-02-18T04:44:29.442Z,0
2016-02-18T04:45:29.477Z,0
2016-02-18T04:46:29.479Z,0
2016-02-18T04:47:29.512Z,0
2016-02-18T04:48:29.531Z,0
2016-02-18T04:49:28.784Z,0
2016-02-18T04:50:29.551Z,0
2016-02-18T04:51:29.570Z,0
2016-02-18T04:52:29.557Z,0
2016-02-18T04:53:29.591Z,0
2016-02-18T04:54:29.594Z,0
2016-02-18T04:55:29.612Z,0
2016-02-18T04:56:29.631Z,0
2016-02-18T04:57:29.633Z,0
2016-02-18T04:58:29.651Z,0
2016-02-18T04:59:29.685Z,0
2016-02-18T05:00:29.672Z,0
2016-02-18T05:01:29.707Z,0
2016-02-18T05:02:29.959Z,0
2016-02-18T05:03:30.051Z,0
2016-02-18T05:04:30.558Z,0
2016-02-18T05:05:29.955Z,0
2016-02-18T05:06:29.786Z,0
2016-02-18T05:07:29.803Z,0
2016-02-18T05:08:29.805Z,0
2016-02-18T05:09:29.855Z,0
2016-02-18T05:10:29.859Z,0
2016-02-18T05:11:29.846Z,0
2016-02-18T05:12:29.739Z,0
2016-02-18T05:13:29.867Z,0
2016-02-18T05:14:29.890Z,0
2016-02-18T05:15:29.940Z,0
2016-02-18T05:16:29.910Z,0
2016-02-18T05:17:29.929Z,0
2016-02-18T05:18:29.947Z,0
2016-02-18T05:19:29.966Z,0
2016-02-18T05:20:30.016Z,0
2016-02-18T05:21:29.987Z,0
2016-02-18T05:22:30.021Z,0
2016-02-18T05:23:30.023Z,0
2016-02-18T05:24:30.042Z,0
2016-02-18T05:25:30.075Z,0
2016-02-18T05:26:30.062Z,0
2016-02-18T05:27:30.097Z,0
2016-02-18T05:28:30.146Z,0
2016-02-18T05:29:30.103Z,0
2016-02-18T05:30:30.136Z,0
2016-02-18T05:31:30.029Z,0
2016-02-18T05:32:30.156Z,0
2016-02-18T05:33:30.175Z,0
2016-02-18T05:34:30.193Z,0
2016-02-18T05:35:30.196Z,0
2016-02-18T05:36:30.215Z,0
2016-02-18T05:37:30.264Z,0
2016-02-18T05:38:30.252Z,0
2016-02-18T05:39:30.269Z,0
2016-02-18T05:40:30.303Z,0
2016-02-18T05:41:30.306Z,0
2016-02-18T05:42:30.308Z,0
2016-02-18T05:43:30.358Z,0
2016-02-18T05:44:30.345Z,0
2016-02-18T05:45:30.363Z,0
2016-02-18T05:46:30.399Z,0
2016-02-18T05:47:30.385Z,0
2016-02-18T05:48:30.419Z,0
2016-02-18T05:49:30.421Z,0
2016-02-18T05:50:30.424Z,0
2016-02-18T05:51:30.442Z,0
2016-02-18T05:52:30.460Z,0
2016-02-18T05:53:30.495Z,0
2016-02-18T05:54:30.498Z,0
2016-02-18T05:55:30.532Z,0
2016-02-18T05:56:30.550Z,0
2016-02-18T05:57:30.553Z,0
2016-02-18T05:58:30.570Z,0
2016-02-18T05:59:30.604Z,0
2016-02-18T06:00:30.576Z,0
2016-02-18T06:01:30.609Z,0
2016-02-18T06:02:30.629Z,0
2016-02-18T06:03:30.615Z,0
2016-02-18T06:04:30.650Z,0
2016-02-18T06:05:30.515Z,0
2016-02-18T06:06:30.674Z,0
2016-02-18T06:07:30.693Z,0
2016-02-18T06:08:30.726Z,0
2016-02-18T06:09:30.713Z,0
2016-02-18T06:10:30.747Z,0
2016-02-18T06:11:30.750Z,0
2016-02-18T06:12:30.754Z,0
2016-02-18T06:13:30.834Z,0
2016-02-18T06:14:30.790Z,0
2016-02-18T06:15:30.808Z,0
2016-02-18T06:16:30.889Z,0
2016-02-18T06:17:30.828Z,0
2016-02-18T06:18:30.847Z,0
2016-02-18T06:19:30.912Z,0
2016-02-18T06:20:30.884Z,0
2016-02-18T06:21:30.918Z,0
2016-02-18T06:22:30.936Z,0
2016-02-18T06:23:30.923Z,0
2016-02-18T06:24:30.957Z,0
2016-02-18T06:25:30.960Z,0
2016-02-18T06:26:30.837Z,0
2016-02-18T06:27:31.011Z,0
2016-02-18T06:28:31.015Z,0
2016-02-18T06:29:31.017Z,0
2016-02-18T06:30:31.067Z,0
2016-02-18T06:31:31.054Z,0
2016-02-18T06:32:31.088Z,0
2016-02-18T06:33:31.074Z,0
2016-02-18T06:34:31.125Z,0
2016-02-18T06:35:31.127Z,0
2016-02-18T06:36:31.130Z,0
2016-02-18T06:37:31.164Z,0
2016-02-18T06:38:31.152Z,0
2016-02-18T06:39:31.169Z,0
2016-02-18T06:40:31.219Z,0
2016-02-18T06:41:31.238Z,0
2016-02-18T06:42:31.224Z,0
2016-02-18T06:43:31.227Z,0
2016-02-18T06:44:31.245Z,0
2016-02-18T06:45:31.279Z,0
2016-02-18T06:46:31.281Z,0
2016-02-18T06:47:31.301Z,0
2016-02-18T06:48:31.334Z,0
2016-02-18T06:49:31.321Z,0
2016-02-18T06:50:31.339Z,0
2016-02-18T06:51:31.373Z,0
2016-02-18T06:52:31.376Z,0
2016-02-18T06:53:31.410Z,0
2016-02-18T06:54:31.397Z,0
2016-02-18T06:55:31.416Z,0
2016-02-18T06:56:31.434Z,0
2016-02-18T06:57:31.452Z,0
2016-02-18T06:58:31.455Z,0
2016-02-18T06:59:31.505Z,0
2016-02-18T07:00:31.491Z,0
2016-02-18T07:01:31.525Z,0
2016-02-18T07:02:31.512Z,0
2016-02-18T07:03:31.531Z,0
2016-02-18T07:04:31.393Z,0
2016-02-18T07:05:31.583Z,0
2016-02-18T07:06:31.585Z,0
2016-02-18T07:07:31.604Z,0
2016-02-18T07:08:31.685Z,0
2016-02-18T07:09:31.624Z,0
2016-02-18T07:10:31.674Z,0
2016-02-18T07:11:31.677Z,0
2016-02-18T07:12:31.665Z,0
2016-02-18T07:13:31.714Z,0
2016-02-18T07:14:31.717Z,0
2016-02-18T07:15:31.720Z,0
2016-02-18T07:16:31.753Z,0
2016-02-18T07:17:33.178Z,0
2016-02-18T07:18:31.758Z,0
2016-02-18T07:19:31.792Z,0
2016-02-18T07:20:31.842Z,5
2016-02-18T07:21:31.813Z,5
2016-02-18T07:22:31.832Z,5
2016-02-18T07:23:31.866Z,0
2016-02-18T07:24:31.853Z,0
2016-02-18T07:25:31.887Z,0
2016-02-18T07:26:31.920Z,5
2016-02-18T07:27:31.908Z,5
2016-02-18T07:28:31.925Z,5
2016-02-18T07:29:31.835Z,5
2016-02-18T07:30:31.947Z,5
2016-02-18T07:31:31.808Z,5
2016-02-18T07:32:31.999Z,5
2016-02-18T07:33:31.986Z,5
2016-02-18T07:34:32.020Z,5
2016-02-18T07:35:32.023Z,5
2016-02-18T07:36:32.026Z,5
2016-02-18T07:37:32.074Z,5
2016-02-18T07:38:32.063Z,5
2016-02-18T07:39:32.080Z,5
2016-02-18T07:40:32.130Z,5
2016-02-18T07:41:32.118Z,5
2016-02-18T07:42:32.135Z,5
2016-02-18T07:43:32.201Z,5
2016-02-18T07:44:32.157Z,10
2016-02-18T07:45:32.221Z,10
2016-02-18T07:46:32.240Z,10
2016-02-18T07:47:32.195Z,10
2016-02-18T07:48:32.214Z,10
2016-02-18T07:49:32.265Z,10
2016-02-18T07:50:32.251Z,10
2016-02-18T07:51:32.270Z,10
2016-02-18T07:52:32.303Z,10
2016-02-18T07:53:32.290Z,10
2016-02-18T07:54:32.308Z,10
2016-02-18T07:55:32.358Z,10
2016-02-18T07:56:32.360Z,10
2016-02-18T07:57:32.348Z,10
2016-02-18T07:58:32.414Z,10
2016-02-18T07:59:32.400Z,10
2016-02-18T08:00:32.419Z,10
2016-02-18T08:01:32.405Z,10
2016-02-18T08:02:32.439Z,10
2016-02-18T08:03:32.473Z,10
2016-02-18T08:04:32.491Z,10
2016-02-18T08:05:32.480Z,10
2016-02-18T08:06:32.543Z,10
2016-02-18T08:07:32.530Z,10
2016-02-18T08:08:32.534Z,10
2016-02-18T08:09:32.646Z,10
2016-02-18T08:10:32.571Z,10
2016-02-18T08:11:32.588Z,10
2016-02-18T08:12:32.591Z,10
2016-02-18T08:13:32.609Z,10
2016-02-18T08:14:32.612Z,10
2016-02-18T08:15:32.646Z,10
2016-02-18T08:16:32.665Z,10
2016-02-18T08:17:32.667Z,10
2016-02-18T08:18:32.685Z,10
2016-02-18T08:19:32.688Z,10
2016-02-18T08:20:32.723Z,15
2016-02-18T08:21:32.756Z,15
2016-02-18T08:22:32.759Z,15
2016-02-18T08:23:32.762Z,15
2016-02-18T08:24:33.076Z,15
2016-02-18T08:25:32.797Z,15
2016-02-18T08:26:32.816Z,15
2016-02-18T08:27:32.959Z,15
2016-02-18T08:28:32.837Z,15
2016-02-18T08:29:32.855Z,15
2016-02-18T08:30:32.859Z,15
2016-02-18T08:31:32.908Z,15
2016-02-18T08:32:32.927Z,15
2016-02-18T08:33:32.914Z,15
2016-02-18T08:34:32.947Z,15
2016-02-18T08:35:32.950Z,15
2016-02-18T08:36:32.984Z,15
2016-02-18T08:37:32.986Z,15
2016-02-18T08:38:33.005Z,15
2016-02-18T08:39:33.023Z,15
2016-02-18T08:40:33.026Z,15
2016-02-18T08:41:33.076Z,15
2016-02-18T08:42:33.062Z,15
2016-02-18T08:43:33.081Z,15
2016-02-18T08:44:33.084Z,15
2016-02-18T08:45:33.118Z,15
2016-02-18T08:46:33.136Z,15
2016-02-18T08:47:33.154Z,15
2016-02-18T08:48:33.157Z,15
2016-02-18T08:49:33.175Z,15
2016-02-18T08:50:33.209Z,15
2016-02-18T08:51:33.212Z,20
2016-02-18T08:52:33.230Z,15
2016-02-18T08:53:33.248Z,15
2016-02-18T08:54:33.266Z,15
2016-02-18T08:55:33.269Z,20
2016-02-18T08:56:33.288Z,20
2016-02-18T08:57:33.290Z,20
2016-02-18T08:58:33.340Z,15
2016-02-18T08:59:33.343Z,20
2016-02-18T09:00:33.361Z,20
2016-02-18T09:01:33.364Z,20
2016-02-18T09:02:33.398Z,10
2016-02-18T09:03:33.416Z,10
2016-02-18T09:04:33.419Z,5
2016-02-18T09:05:33.421Z,5
2016-02-18T09:06:33.456Z,5
2016-02-18T09:07:33.458Z,5
2016-02-18T09:08:33.477Z,5
2016-02-18T09:09:33.511Z,5
2016-02-18T09:10:33.513Z,5
2016-02-18T09:11:33.531Z,5
2016-02-18T09:12:33.565Z,5
2016-02-18T09:13:33.552Z,5
2016-02-18T09:14:33.586Z,5
2016-02-18T09:15:33.620Z,5
2016-02-18T09:16:33.607Z,5
2016-02-18T09:17:33.626Z,5
2016-02-18T09:18:33.644Z,5
2016-02-18T09:19:33.662Z,5
2016-02-18T09:20:33.696Z,5
2016-02-18T09:21:33.684Z,5
2016-02-18T09:22:33.717Z,5
2016-02-18T09:23:33.751Z,5
2016-02-18T09:24:33.738Z,5
2016-02-18T09:25:33.756Z,5
2016-02-18T09:26:33.759Z,5
2016-02-18T09:27:33.808Z,5
2016-02-18T09:28:33.796Z,5
2016-02-18T09:29:33.814Z,5
2016-02-18T09:30:33.833Z,5
2016-02-18T09:31:33.851Z,5
2016-02-18T09:32:33.869Z,5
2016-02-18T09:33:33.887Z,5
2016-02-18T09:34:33.906Z,5
2016-02-18T09:35:33.908Z,5
2016-02-18T09:36:33.942Z,5
2016-02-18T09:37:33.944Z,5
2016-02-18T09:38:33.963Z,5
2016-02-18T09:39:33.982Z,5
2016-02-18T09:40:33.985Z,5
2016-02-18T09:41:34.019Z,5
2016-02-18T09:42:34.036Z,5
2016-02-18T09:43:34.039Z,5
2016-02-18T09:44:34.058Z,5
2016-02-18T09:45:34.076Z,5
2016-02-18T09:46:34.110Z,5
2016-02-18T09:47:34.112Z,5
2016-02-18T09:48:34.131Z,5
2016-02-18T09:49:34.133Z,5
2016-02-18T09:50:34.168Z,5
2016-02-18T09:51:34.186Z,5
2016-02-18T09:52:34.188Z,5
2016-02-18T09:53:34.207Z,5
2016-02-18T09:54:34.226Z,5
2016-02-18T09:55:34.087Z,5
2016-02-18T09:56:34.106Z,5
2016-02-18T09:57:34.280Z,5
2016-02-18T09:58:34.283Z,5
2016-02-18T09:59:34.331Z,5
2016-02-18T10:00:33.616Z,5
2016-02-18T10:01:34.370Z,5
2016-02-18T10:02:34.372Z,5
2016-02-18T10:03:34.375Z,5
2016-02-18T10:04:34.392Z,10
2016-02-18T10:05:34.411Z,10
2016-02-18T10:06:34.538Z,10
2016-02-18T10:07:34.447Z,10
2016-02-18T10:08:34.481Z,10
2016-02-18T10:09:34.468Z,10
2016-02-18T10:10:34.565Z,10
2016-02-18T10:11:34.521Z,10
2016-02-18T10:12:34.524Z,10
2016-02-18T10:13:34.558Z,10
2016-02-18T10:14:34.607Z,10
2016-02-18T10:15:34.579Z,10
2016-02-18T10:16:34.596Z,10
2016-02-18T10:17:34.615Z,10
2016-02-18T10:18:34.633Z,10
2016-02-18T10:19:34.652Z,10
2016-02-18T10:20:34.702Z,10
2016-02-18T10:21:34.673Z,10
2016-02-18T10:22:34.690Z,10
2016-02-18T10:23:34.710Z,10
2016-02-18T10:24:34.728Z,10
2016-02-18T10:25:34.762Z,10
2016-02-18T10:26:34.779Z,10
2016-02-18T10:27:34.782Z,10
2016-02-18T10:28:34.785Z,10
2016-02-18T10:29:34.834Z,10
2016-02-18T10:30:34.822Z,10
2016-02-18T10:31:34.856Z,10
2016-02-18T10:32:34.875Z,10
2016-02-18T10:33:34.877Z,10
2016-02-18T10:34:34.895Z,10
2016-02-18T10:35:34.929Z,10
2016-02-18T10:36:34.932Z,10
2016-02-18T10:37:34.966Z,10
2016-02-18T10:38:34.984Z,10
2016-02-18T10:39:34.971Z,10
2016-02-18T10:40:35.005Z,20
2016-02-18T10:41:35.007Z,15
2016-02-18T10:42:35.073Z,15
2016-02-18T10:43:35.060Z,15
2016-02-18T10:44:35.063Z,10
2016-02-18T10:45:35.081Z,10
2016-02-18T10:46:35.115Z,10
2016-02-18T10:47:35.133Z,10
2016-02-18T10:48:35.135Z,10
2016-02-18T10:49:35.154Z,10
2016-02-18T10:50:35.157Z,10
2016-02-18T10:51:35.190Z,10
2016-02-18T10:52:35.193Z,10
2016-02-18T10:53:35.243Z,10
2016-02-18T10:54:35.246Z,10
2016-02-18T10:55:35.249Z,10
2016-02-18T10:56:35.282Z,10
2016-02-18T10:57:35.285Z,10
2016-02-18T10:58:35.319Z,10
2016-02-18T10:59:35.322Z,10
2016-02-18T11:00:35.199Z,10
2016-02-18T11:01:35.359Z,10
2016-02-18T11:02:35.377Z,10
2016-02-18T11:03:35.411Z,10
2016-02-18T11:04:35.445Z,15
2016-02-18T11:05:35.417Z,15
2016-02-18T11:06:35.434Z,15
2016-02-18T11:07:35.469Z,15
2016-02-18T11:08:35.462Z,15
2016-02-18T11:09:35.484Z,20
2016-02-18T11:10:35.489Z,20
2016-02-18T11:11:35.480Z,15
2016-02-18T11:12:35.488Z,10
2016-02-18T11:13:35.515Z,10
2016-02-18T11:14:35.530Z,15
2016-02-18T11:15:35.528Z,10
2016-02-18T11:16:35.573Z,10
2016-02-18T11:17:35.572Z,15
2016-02-18T11:18:35.588Z,15
2016-02-18T11:19:35.588Z,15
2016-02-18T11:20:35.605Z,15
2016-02-18T11:21:35.623Z,15
2016-02-18T11:22:35.655Z,15
2016-02-18T11:23:35.657Z,15
2016-02-18T11:24:35.674Z,15
2016-02-18T11:25:35.707Z,15
2016-02-18T11:26:35.725Z,25
2016-02-18T11:27:35.726Z,25
2016-02-18T11:28:35.745Z,15
2016-02-18T11:29:35.747Z,15
2016-02-18T11:30:35.796Z,10
2016-02-18T11:31:35.815Z,10
2016-02-18T11:32:35.817Z,10
2016-02-18T11:33:35.835Z,10
2016-02-18T11:34:35.853Z,10
2016-02-18T11:35:35.871Z,10
2016-02-18T11:36:35.889Z,20
2016-02-18T11:37:35.923Z,25
2016-02-18T11:38:35.926Z,25
2016-02-18T11:39:35.945Z,25
2016-02-18T11:40:35.979Z,25
2016-02-18T11:41:35.981Z,30
2016-02-18T11:42:35.984Z,40
2016-02-18T11:43:36.002Z,40
2016-02-18T11:44:36.036Z,35
2016-02-18T11:45:36.055Z,25
2016-02-18T11:46:36.072Z,20
2016-02-18T11:47:36.092Z,20
2016-02-18T11:48:36.110Z,30
2016-02-18T11:49:36.158Z,20
2016-02-18T11:50:36.162Z,20
2016-02-18T11:51:36.164Z,20
2016-02-18T11:52:36.230Z,15
2016-02-18T11:53:36.201Z,15
2016-02-18T11:54:36.235Z,20
2016-02-18T11:55:36.097Z,20
2016-02-18T11:56:36.256Z,25
2016-02-18T11:57:36.290Z,30
2016-02-18T11:58:36.308Z,30
2016-02-18T11:59:36.296Z,25
2016-02-18T12:00:36.345Z,30
2016-02-18T12:01:36.363Z,30
2016-02-18T12:02:36.381Z,20
2016-02-18T12:03:36.400Z,25
2016-02-18T12:04:36.418Z,25
2016-02-18T12:05:36.436Z,25
2016-02-18T12:06:36.471Z,20
2016-02-18T12:07:36.457Z,20
2016-02-18T12:08:36.492Z,20
2016-02-18T12:09:36.525Z,25
2016-02-18T12:10:36.528Z,25
2016-02-18T12:11:36.547Z,20
2016-02-18T12:12:36.596Z,20
2016-02-18T12:13:36.583Z,20
2016-02-18T12:14:36.601Z,25
2016-02-18T12:15:36.650Z,25
2016-02-18T12:16:36.638Z,25
2016-02-18T12:17:36.672Z,25
2016-02-18T12:18:36.706Z,20
2016-02-18T12:19:36.693Z,20
2016-02-18T12:20:36.727Z,25
2016-02-18T12:21:36.761Z,20
2016-02-18T12:22:36.763Z,25
2016-02-18T12:23:36.782Z,25
2016-02-18T12:24:36.784Z,20
2016-02-18T12:25:36.803Z,25
2016-02-18T12:26:36.852Z,20
2016-02-18T12:27:36.855Z,25
2016-02-18T12:28:36.858Z,20
2016-02-18T12:29:36.891Z,25
2016-02-18T12:30:36.941Z,30
2016-02-18T12:31:36.928Z,30
2016-02-18T12:32:36.962Z,30
2016-02-18T12:33:36.965Z,25
2016-02-18T12:34:36.999Z,30
2016-02-18T12:35:37.018Z,30
2016-02-18T12:36:37.035Z,30
2016-02-18T12:37:37.038Z,25
2016-02-18T12:38:37.072Z,25
2016-02-18T12:39:37.075Z,30
2016-02-18T12:40:37.093Z,30
2016-02-18T12:41:37.143Z,25
2016-02-18T12:42:37.145Z,25
2016-02-18T12:43:37.163Z,30
2016-02-18T12:44:37.214Z,30
2016-02-18T12:45:37.201Z,30
2016-02-18T12:46:37.219Z,30
2016-02-18T12:47:37.284Z,25
2016-02-18T12:48:37.255Z,25
2016-02-18T12:49:37.274Z,25
2016-02-18T12:50:37.291Z,25
2016-02-18T12:51:37.341Z,20
2016-02-18T12:52:37.329Z,20
2016-02-18T12:53:37.378Z,20
2016-02-18T12:54:37.444Z,20
2016-02-18T12:55:37.399Z,15
2016-02-18T12:56:37.433Z,15
2016-02-18T12:57:37.435Z,15
2016-02-18T12:58:37.454Z,15
2016-02-18T12:59:37.487Z,15
2016-02-18T13:00:37.491Z,15
2016-02-18T13:01:37.525Z,15
2016-02-18T13:02:37.559Z,15
2016-02-18T13:03:37.546Z,15
2016-02-18T13:04:37.471Z,15
2016-02-18T13:05:37.645Z,15
2016-02-18T13:06:37.616Z,15
2016-02-18T13:07:37.634Z,15
2016-02-18T13:08:37.653Z,15
2016-02-18T13:09:37.687Z,15
2016-02-18T13:10:37.720Z,15
2016-02-18T13:11:37.724Z,15
2016-02-18T13:12:37.726Z,20
2016-02-18T13:13:37.745Z,25
2016-02-18T13:14:37.778Z,25
2016-02-18T13:15:37.812Z,30
2016-02-18T13:16:37.814Z,30
2016-02-18T13:17:37.833Z,25
2016-02-18T13:18:37.867Z,25
2016-02-18T13:19:37.886Z,25
2016-02-18T13:20:37.920Z,25
2016-02-18T13:21:37.906Z,25
2016-02-18T13:22:37.956Z,25
2016-02-18T13:23:37.974Z,25
2016-02-18T13:24:37.994Z,30
2016-02-18T13:25:37.996Z,30
2016-02-18T13:26:38.013Z,25
2016-02-18T13:27:37.313Z,20
2016-02-18T13:28:38.066Z,20
2016-02-18T13:29:37.335Z,20
2016-02-18T13:30:38.087Z,20
2016-02-18T13:31:38.105Z,20
2016-02-18T13:32:38.139Z,20
2016-02-18T13:33:38.173Z,25
2016-02-18T13:34:38.176Z,25
2016-02-18T13:35:38.194Z,20
2016-02-18T13:36:38.212Z,20
2016-02-18T13:37:38.246Z,15
2016-02-18T13:38:38.265Z,15
2016-02-18T13:39:38.284Z,15
2016-02-18T13:40:38.332Z,15
2016-02-18T13:41:38.320Z,15
2016-02-18T13:42:38.354Z,15
2016-02-18T13:43:38.372Z,15
2016-02-18T13:44:38.390Z,15
2016-02-18T13:45:38.408Z,15
2016-02-18T13:46:38.412Z,15
2016-02-18T13:47:38.430Z,10
2016-02-18T13:48:38.495Z,10
2016-02-18T13:49:38.481Z,10
2016-02-18T13:50:38.516Z,10
2016-02-18T13:51:38.519Z,10
2016-02-18T13:52:38.521Z,10
2016-02-18T13:53:38.586Z,10
2016-02-18T13:54:38.574Z,10
2016-02-18T13:55:38.608Z,10
2016-02-18T13:56:38.641Z,10
2016-02-18T13:57:38.628Z,10
2016-02-18T13:58:38.663Z,10
2016-02-18T13:59:38.712Z,10
2016-02-18T14:00:38.699Z,10
2016-02-18T14:01:38.732Z,10
2016-02-18T14:02:39.346Z,10
2016-02-18T14:03:38.754Z,15
2016-02-18T14:04:38.636Z,15
2016-02-18T14:05:38.795Z,15
2016-02-18T14:06:38.813Z,15
2016-02-18T14:07:38.847Z,15
2016-02-18T14:08:38.864Z,20
2016-02-18T14:09:38.883Z,20
2016-02-18T14:10:38.933Z,20
2016-02-18T14:11:38.904Z,20
2016-02-18T14:12:38.939Z,20
2016-02-18T14:13:38.988Z,15
2016-02-18T14:14:38.991Z,15
2016-02-18T14:15:38.993Z,20
2016-02-18T14:16:39.043Z,15
2016-02-18T14:17:39.046Z,15
2016-02-18T14:18:39.079Z,15
2016-02-18T14:19:39.113Z,15
2016-02-18T14:20:39.101Z,20
2016-02-18T14:21:39.135Z,20
2016-02-18T14:22:39.152Z,20
2016-02-18T14:23:39.155Z,20
2016-02-18T14:24:39.205Z,15
2016-02-18T14:25:39.193Z,15
2016-02-18T14:26:39.226Z,15
2016-02-18T14:27:39.260Z,10
2016-02-18T14:28:39.263Z,10
2016-02-18T14:29:39.296Z,10
2016-02-18T14:30:39.331Z,10
2016-02-18T14:31:39.318Z,15
2016-02-18T14:32:39.336Z,15
2016-02-18T14:33:39.386Z,15
2016-02-18T14:34:39.389Z,10